sensor_id;sensor_type;location;lat;lon;timestamp;pressure;altitude;pressure_sealevel;temperature;humidity
61571;BME280;47463;49.884;10.010;2023-10-09T00:00:01;102480;;;11.1;87
61571;BME280;47463;49.884;10.010;2023-10-09T00:05:01;102480;;;11.1;87
61571;BME280;47463;49.884;10.010;2023-10-09T00:10:01;102459.99999999999;;;11.2;87
61571;BME280;47463;49.884;10.010;2023-10-09T00:15:01;102459.99999999999;;;11.2;87
61571;BME280;47463;49.884;10.010;2023-10-09T00:20:01;102459.99999999999;;;11.1;87
61571;BME280;47463;49.884;10.010;2023-10-09T00:25:01;102450;;;11.1;87
61571;BME280;47463;49.884;10.010;2023-10-09T00:30:01;102450;;;11.1;87
61571;BME280;47463;49.884;10.010;2023-10-09T00:35:01;102450;;;11.1;86
61571;BME280;47463;49.884;10.010;2023-10-09T00:40:01;102450;;;10.9;86
61571;BME280;47463;49.884;10.010;2023-10-09T00:45:01;102440.00000000001;;;10.9;86
61571;BME280;47463;49.884;10.010;2023-10-09T00:50:02;102430;;;10.7;86
61571;BME280;47463;49.884;10.010;2023-10-09T00:55:01;102430;;;10.7;86
61571;BME280;47463;49.884;10.010;2023-10-09T01:00:01;102430;;;10.7;86
61571;BME280;47463;49.884;10.010;2023-10-09T01:05:01;102409.99999999999;;;10.6;86
61571;BME280;47463;49.884;10.010;2023-10-09T01:10:01;102400;;;10.6;87
61571;BME280;47463;49.884;10.010;2023-10-09T01:15:01;102400;;;10.6;87
61571;BME280;47463;49.884;10.010;2023-10-09T01:20:01;102390;;;10.6;87
61571;BME280;47463;49.884;10.010;2023-10-09T01:25:01;102380;;;10.6;87
61571;BME280;47463;49.884;10.010;2023-10-09T01:30:01;102370;;;10.6;87
61571;BME280;47463;49.884;10.010;2023-10-09T01:35:01;102370;;;10.6;87
61571;BME280;47463;49.884;10.010;2023-10-09T01:40:01;102360;;;10.6;87
61571;BME280;47463;49.884;10.010;2023-10-09T01:45:01;102350;;;10.6;87
61571;BME280;47463;49.884;10.010;2023-10-09T01:50:01;102340;;;10.6;87
61571;BME280;47463;49.884;10.010;2023-10-09T01:55:01;102340;;;10.5;87
61571;BME280;47463;49.884;10.010;2023-10-09T02:00:01;102330;;;10.5;87
61571;BME280;47463;49.884;10.010;2023-10-09T02:05:01;102340;;;10.5;87
61571;BME280;47463;49.884;10.010;2023-10-09T02:10:01;102340;;;10.4;87
61571;BME280;47463;49.884;10.010;2023-10-09T02:15:01;102340;;;10.5;87
61571;BME280;47463;49.884;10.010;2023-10-09T02:20:01;102340;;;10.4;87
61571;BME280;47463;49.884;10.010;2023-10-09T02:25:01;102340;;;10.5;87
61571;BME280;47463;49.884;10.010;2023-10-09T02:30:01;102340;;;10.6;88
61571;BME280;47463;49.884;10.010;2023-10-09T02:35:01;102360;;;10.7;88
61571;BME280;47463;49.884;10.010;2023-10-09T02:40:01;102350;;;10.7;88
61571;BME280;47463;49.884;10.010;2023-10-09T02:45:01;102340;;;10.8;88
61571;BME280;47463;49.884;10.010;2023-10-09T02:50:01;102340;;;10.7;88
61571;BME280;47463;49.884;10.010;2023-10-09T02:55:01;102350;;;10.5;88
61571;BME280;47463;49.884;10.010;2023-10-09T03:00:01;102350;;;10.4;88
61571;BME280;47463;49.884;10.010;2023-10-09T03:05:01;102360;;;10.3;88
61571;BME280;47463;49.884;10.010;2023-10-09T03:10:01;102340;;;10.3;88
61571;BME280;47463;49.884;10.010;2023-10-09T03:15:01;102350;;;10.3;88
61571;BME280;47463;49.884;10.010;2023-10-09T03:20:02;102330;;;10.2;88
61571;BME280;47463;49.884;10.010;2023-10-09T03:25:01;102330;;;9.8;88
61571;BME280;47463;49.884;10.010;2023-10-09T03:30:01;102320;;;9.8;88
61571;BME280;47463;49.884;10.010;2023-10-09T03:35:01;102320;;;9.9;88
61571;BME280;47463;49.884;10.010;2023-10-09T03:40:01;102320;;;9.7;88
61571;BME280;47463;49.884;10.010;2023-10-09T03:45:01;102320;;;9.9;89
61571;BME280;47463;49.884;10.010;2023-10-09T03:50:01;102330;;;9.8;89
61571;BME280;47463;49.884;10.010;2023-10-09T03:55:01;102330;;;9.8;89
61571;BME280;47463;49.884;10.010;2023-10-09T04:00:01;102300;;;9.6;89
61571;BME280;47463;49.884;10.010;2023-10-09T04:05:01;102300;;;9.5;89
61571;BME280;47463;49.884;10.010;2023-10-09T04:10:01;102310;;;9.9;89
61571;BME280;47463;49.884;10.010;2023-10-09T04:15:01;102310;;;9.4;89
61571;BME280;47463;49.884;10.010;2023-10-09T04:20:01;102300;;;9.8;89
61571;BME280;47463;49.884;10.010;2023-10-09T04:25:01;102300;;;10.1;89
61571;BME280;47463;49.884;10.010;2023-10-09T04:30:01;102270;;;10.1;89
61571;BME280;47463;49.884;10.010;2023-10-09T04:35:01;102270;;;9.9;89
61571;BME280;47463;49.884;10.010;2023-10-09T04:40:01;102280;;;10.4;89
61571;BME280;47463;49.884;10.010;2023-10-09T04:45:01;102290;;;10.7;89
61571;BME280;47463;49.884;10.010;2023-10-09T04:50:01;102290;;;10.8;89
61571;BME280;47463;49.884;10.010;2023-10-09T04:55:01;102290;;;10.9;89
61571;BME280;47463;49.884;10.010;2023-10-09T05:00:01;102290;;;10.9;89
61571;BME280;47463;49.884;10.010;2023-10-09T05:05:01;102280;;;10.9;89
61571;BME280;47463;49.884;10.010;2023-10-09T05:10:01;102290;;;11;89
61571;BME280;47463;49.884;10.010;2023-10-09T05:15:01;102300;;;10.4;89
61571;BME280;47463;49.884;10.010;2023-10-09T05:20:01;102290;;;10;89
61571;BME280;47463;49.884;10.010;2023-10-09T05:25:01;102290;;;9.9;88
61571;BME280;47463;49.884;10.010;2023-10-09T05:30:01;102290;;;9.8;88
61571;BME280;47463;49.884;10.010;2023-10-09T05:35:01;102290;;;9.8;88
61571;BME280;47463;49.884;10.010;2023-10-09T05:40:01;102290;;;9.9;88
61571;BME280;47463;49.884;10.010;2023-10-09T05:45:01;102300;;;9.8;89
61571;BME280;47463;49.884;10.010;2023-10-09T05:50:01;102300;;;9.7;89
61571;BME280;47463;49.884;10.010;2023-10-09T05:55:01;102310;;;9.8;89
61571;BME280;47463;49.884;10.010;2023-10-09T06:00:01;102300;;;9.8;89
61571;BME280;47463;49.884;10.010;2023-10-09T06:05:01;102310;;;9.8;89
61571;BME280;47463;49.884;10.010;2023-10-09T06:10:01;102290;;;9.8;89
61571;BME280;47463;49.884;10.010;2023-10-09T06:15:01;102300;;;9.9;89
61571;BME280;47463;49.884;10.010;2023-10-09T06:20:01;102320;;;10;89
61571;BME280;47463;49.884;10.010;2023-10-09T06:25:01;102310;;;10.2;89
61571;BME280;47463;49.884;10.010;2023-10-09T06:30:01;102310;;;10.2;89
61571;BME280;47463;49.884;10.010;2023-10-09T06:35:01;102310;;;10.2;89
61571;BME280;47463;49.884;10.010;2023-10-09T06:40:01;102310;;;10.5;89
61571;BME280;47463;49.884;10.010;2023-10-09T06:45:01;102320;;;10.5;89
61571;BME280;47463;49.884;10.010;2023-10-09T06:50:01;102320;;;10.9;89
61571;BME280;47463;49.884;10.010;2023-10-09T06:55:01;102310;;;11.3;89
61571;BME280;47463;49.884;10.010;2023-10-09T07:00:01;102320;;;11.7;89
61571;BME280;47463;49.884;10.010;2023-10-09T07:05:01;102320;;;11.9;89
61571;BME280;47463;49.884;10.010;2023-10-09T07:10:01;102320;;;12.2;88
61571;BME280;47463;49.884;10.010;2023-10-09T07:15:01;102340;;;12.4;87
61571;BME280;47463;49.884;10.010;2023-10-09T07:20:01;102340;;;12.6;85
61571;BME280;47463;49.884;10.010;2023-10-09T07:25:01;102340;;;12.9;84
61571;BME280;47463;49.884;10.010;2023-10-09T07:30:01;102340;;;13;83
61571;BME280;47463;49.884;10.010;2023-10-09T07:35:01;102340;;;13.3;82
61571;BME280;47463;49.884;10.010;2023-10-09T07:40:01;102330;;;13.5;82
61571;BME280;47463;49.884;10.010;2023-10-09T07:45:01;102320;;;13.7;80
61571;BME280;47463;49.884;10.010;2023-10-09T07:50:01;102340;;;13.9;79
61571;BME280;47463;49.884;10.010;2023-10-09T07:55:01;102340;;;14;79
61571;BME280;47463;49.884;10.010;2023-10-09T08:00:01;102340;;;14.1;78
61571;BME280;47463;49.884;10.010;2023-10-09T08:05:01;102360;;;14.1;78
61571;BME280;47463;49.884;10.010;2023-10-09T08:10:01;102360;;;14.5;78
61571;BME280;47463;49.884;10.010;2023-10-09T08:15:01;102360;;;14.7;78
61571;BME280;47463;49.884;10.010;2023-10-09T08:20:01;102380;;;14.7;78
61571;BME280;47463;49.884;10.010;2023-10-09T08:25:01;102390;;;14.8;78
61571;BME280;47463;49.884;10.010;2023-10-09T08:30:01;102400;;;14.8;78
61571;BME280;47463;49.884;10.010;2023-10-09T08:35:01;102380;;;14.7;79
61571;BME280;47463;49.884;10.010;2023-10-09T08:40:01;102380;;;14.6;79
61571;BME280;47463;49.884;10.010;2023-10-09T08:45:01;102360;;;14.5;79
61571;BME280;47463;49.884;10.010;2023-10-09T08:50:01;102370;;;14.6;80
61571;BME280;47463;49.884;10.010;2023-10-09T08:55:01;102380;;;14.7;79
61571;BME280;47463;49.884;10.010;2023-10-09T09:00:01;102360;;;14.8;78
61571;BME280;47463;49.884;10.010;2023-10-09T09:05:01;102390;;;14.9;78
61571;BME280;47463;49.884;10.010;2023-10-09T09:10:01;102400;;;15;78
61571;BME280;47463;49.884;10.010;2023-10-09T09:15:01;102400;;;15;78
61571;BME280;47463;49.884;10.010;2023-10-09T09:20:09;102409.99999999999;;;15.2;76
61571;BME280;47463;49.884;10.010;2023-10-09T09:25:01;102400;;;15.3;77
61571;BME280;47463;49.884;10.010;2023-10-09T09:30:01;102409.99999999999;;;15.2;78
61571;BME280;47463;49.884;10.010;2023-10-09T09:35:01;102400;;;15.2;78
61571;BME280;47463;49.884;10.010;2023-10-09T09:40:01;102400;;;15.1;78
61571;BME280;47463;49.884;10.010;2023-10-09T09:45:01;102370;;;15.2;79
61571;BME280;47463;49.884;10.010;2023-10-09T09:50:01;102400;;;15.2;79
61571;BME280;47463;49.884;10.010;2023-10-09T09:55:01;102400;;;15.3;78
61571;BME280;47463;49.884;10.010;2023-10-09T10:00:01;102380;;;15.5;78
61571;BME280;47463;49.884;10.010;2023-10-09T10:05:02;102380;;;15.6;77
61571;BME280;47463;49.884;10.010;2023-10-09T10:10:01;102380;;;15.7;76
61571;BME280;47463;49.884;10.010;2023-10-09T10:15:01;102380;;;15.8;75
61571;BME280;47463;49.884;10.010;2023-10-09T10:20:02;102370;;;15.9;75
61571;BME280;47463;49.884;10.010;2023-10-09T10:25:01;102360;;;16.1;75
61571;BME280;47463;49.884;10.010;2023-10-09T10:30:32;102370;;;16.4;75
61571;BME280;47463;49.884;10.010;2023-10-09T10:35:01;102360;;;16.4;75
61571;BME280;47463;49.884;10.010;2023-10-09T10:40:01;102360;;;16.4;75
61571;BME280;47463;49.884;10.010;2023-10-09T10:45:01;102350;;;16.4;75
61571;BME280;47463;49.884;10.010;2023-10-09T10:50:01;102370;;;16.4;74
61571;BME280;47463;49.884;10.010;2023-10-09T10:55:08;102380;;;16.5;74
61571;BME280;47463;49.884;10.010;2023-10-09T11:00:01;102390;;;16.5;74
61571;BME280;47463;49.884;10.010;2023-10-09T11:05:01;102390;;;16.6;74
61571;BME280;47463;49.884;10.010;2023-10-09T11:10:01;102380;;;16.6;74
61571;BME280;47463;49.884;10.010;2023-10-09T11:15:01;102409.99999999999;;;16.7;74
61571;BME280;47463;49.884;10.010;2023-10-09T11:20:01;102450;;;16.7;74
61571;BME280;47463;49.884;10.010;2023-10-09T11:25:01;102420;;;16.8;73
61571;BME280;47463;49.884;10.010;2023-10-09T11:30:01;102360;;;16.9;72
61571;BME280;47463;49.884;10.010;2023-10-09T11:35:16;102320;;;16.7;74
61571;BME280;47463;49.884;10.010;2023-10-09T11:40:01;102320;;;16.8;74
61571;BME280;47463;49.884;10.010;2023-10-09T11:45:01;102310;;;16.9;73
61571;BME280;47463;49.884;10.010;2023-10-09T11:50:01;102280;;;17.1;73
61571;BME280;47463;49.884;10.010;2023-10-09T11:55:01;102290;;;17.3;72
61571;BME280;47463;49.884;10.010;2023-10-09T12:00:01;102300;;;17.5;71
61571;BME280;47463;49.884;10.010;2023-10-09T12:05:01;102270;;;17.6;70
61571;BME280;47463;49.884;10.010;2023-10-09T12:10:01;102260;;;17.7;70
61571;BME280;47463;49.884;10.010;2023-10-09T12:15:01;102250;;;17.7;69
61571;BME280;47463;49.884;10.010;2023-10-09T12:20:01;102240;;;17.7;69
61571;BME280;47463;49.884;10.010;2023-10-09T12:25:01;102230;;;17.7;69
61571;BME280;47463;49.884;10.010;2023-10-09T12:30:01;102220;;;17.7;69
61571;BME280;47463;49.884;10.010;2023-10-09T12:35:01;102220;;;17.8;68
61571;BME280;47463;49.884;10.010;2023-10-09T12:40:01;102200;;;17.8;68
61571;BME280;47463;49.884;10.010;2023-10-09T12:45:01;102210;;;18.2;65
61571;BME280;47463;49.884;10.010;2023-10-09T12:50:01;102210;;;18.3;65
61571;BME280;47463;49.884;10.010;2023-10-09T12:55:01;102200;;;18.3;65
61571;BME280;47463;49.884;10.010;2023-10-09T13:00:01;102210;;;18.4;64
61571;BME280;47463;49.884;10.010;2023-10-09T13:05:01;102210;;;18.6;64
61571;BME280;47463;49.884;10.010;2023-10-09T13:10:01;102210;;;18.7;63
61571;BME280;47463;49.884;10.010;2023-10-09T13:15:01;102210;;;18.9;62
61571;BME280;47463;49.884;10.010;2023-10-09T13:20:01;102210;;;19;62
61571;BME280;47463;49.884;10.010;2023-10-09T13:25:01;102220;;;18.9;61
61571;BME280;47463;49.884;10.010;2023-10-09T13:30:01;102220;;;19.1;61
61571;BME280;47463;49.884;10.010;2023-10-09T13:35:01;102200;;;19.1;60
61571;BME280;47463;49.884;10.010;2023-10-09T13:40:01;102210;;;19.1;60
61571;BME280;47463;49.884;10.010;2023-10-09T13:45:01;102210;;;19.2;59
61571;BME280;47463;49.884;10.010;2023-10-09T13:50:01;102200;;;19.2;58
61571;BME280;47463;49.884;10.010;2023-10-09T13:55:01;102190;;;19.3;58
61571;BME280;47463;49.884;10.010;2023-10-09T14:00:01;102200;;;19.4;57
61571;BME280;47463;49.884;10.010;2023-10-09T14:05:01;102210;;;19.5;56
61571;BME280;47463;49.884;10.010;2023-10-09T14:10:01;102200;;;19.5;56
61571;BME280;47463;49.884;10.010;2023-10-09T14:15:01;102210;;;19.5;55
61571;BME280;47463;49.884;10.010;2023-10-09T14:20:01;102200;;;19.6;54
61571;BME280;47463;49.884;10.010;2023-10-09T14:25:01;102190;;;19.6;54
61571;BME280;47463;49.884;10.010;2023-10-09T14:30:01;102200;;;19.6;54
61571;BME280;47463;49.884;10.010;2023-10-09T14:35:01;102200;;;19.5;54
61571;BME280;47463;49.884;10.010;2023-10-09T14:40:01;102200;;;19.5;54
61571;BME280;47463;49.884;10.010;2023-10-09T14:45:01;102210;;;19.5;54
61571;BME280;47463;49.884;10.010;2023-10-09T14:50:01;102230;;;19.4;54
61571;BME280;47463;49.884;10.010;2023-10-09T14:55:01;102240;;;19.3;55
61571;BME280;47463;49.884;10.010;2023-10-09T15:00:01;102230;;;19.2;56
61571;BME280;47463;49.884;10.010;2023-10-09T15:05:01;102220;;;19.2;55
61571;BME280;47463;49.884;10.010;2023-10-09T15:10:01;102230;;;19.2;56
61571;BME280;47463;49.884;10.010;2023-10-09T15:15:01;102240;;;19.1;56
61571;BME280;47463;49.884;10.010;2023-10-09T15:20:01;102240;;;19.1;56
61571;BME280;47463;49.884;10.010;2023-10-09T15:25:01;102230;;;19.1;55
61571;BME280;47463;49.884;10.010;2023-10-09T15:30:01;102240;;;19;56
61571;BME280;47463;49.884;10.010;2023-10-09T15:35:01;102230;;;19;56
61571;BME280;47463;49.884;10.010;2023-10-09T15:40:01;102240;;;18.9;56
61571;BME280;47463;49.884;10.010;2023-10-09T15:45:01;102240;;;18.9;56
61571;BME280;47463;49.884;10.010;2023-10-09T15:50:01;102230;;;18.9;56
61571;BME280;47463;49.884;10.010;2023-10-09T15:55:01;102230;;;18.8;55
61571;BME280;47463;49.884;10.010;2023-10-09T16:00:01;102240;;;18.9;55
61571;BME280;47463;49.884;10.010;2023-10-09T16:05:01;102230;;;18.8;55
61571;BME280;47463;49.884;10.010;2023-10-09T16:10:01;102220;;;18.7;55
61571;BME280;47463;49.884;10.010;2023-10-09T16:15:01;102220;;;18.7;55
61571;BME280;47463;49.884;10.010;2023-10-09T16:20:01;102220;;;18.6;55
61571;BME280;47463;49.884;10.010;2023-10-09T16:25:01;102220;;;18.6;55
61571;BME280;47463;49.884;10.010;2023-10-09T16:30:01;102210;;;18.6;53
61571;BME280;47463;49.884;10.010;2023-10-09T16:35:01;102220;;;18.5;53
61571;BME280;47463;49.884;10.010;2023-10-09T16:40:01;102210;;;18.7;52
61571;BME280;47463;49.884;10.010;2023-10-09T16:45:01;102230;;;18.7;52
61571;BME280;47463;49.884;10.010;2023-10-09T16:50:01;102230;;;18.6;52
61571;BME280;47463;49.884;10.010;2023-10-09T16:55:01;102230;;;18.6;52
61571;BME280;47463;49.884;10.010;2023-10-09T17:00:01;102250;;;18.3;53
61571;BME280;47463;49.884;10.010;2023-10-09T17:05:01;102250;;;18.3;52
61571;BME280;47463;49.884;10.010;2023-10-09T17:10:01;102250;;;18.3;52
61571;BME280;47463;49.884;10.010;2023-10-09T17:15:01;102250;;;18.4;52
61571;BME280;47463;49.884;10.010;2023-10-09T17:20:01;102250;;;18.5;52
61571;BME280;47463;49.884;10.010;2023-10-09T17:25:01;102260;;;17.9;56
61571;BME280;47463;49.884;10.010;2023-10-09T17:30:01;102260;;;17.4;60
61571;BME280;47463;49.884;10.010;2023-10-09T17:35:01;102260;;;16.8;64
61571;BME280;47463;49.884;10.010;2023-10-09T17:40:01;102260;;;16.6;65
61571;BME280;47463;49.884;10.010;2023-10-09T17:45:01;102270;;;16.2;68
61571;BME280;47463;49.884;10.010;2023-10-09T17:50:01;102260;;;16;68
61571;BME280;47463;49.884;10.010;2023-10-09T17:55:01;102260;;;15.8;69
61571;BME280;47463;49.884;10.010;2023-10-09T18:00:01;102270;;;15.7;69
61571;BME280;47463;49.884;10.010;2023-10-09T18:05:01;102270;;;15.7;71
61571;BME280;47463;49.884;10.010;2023-10-09T18:10:01;102260;;;15.6;70
61571;BME280;47463;49.884;10.010;2023-10-09T18:15:01;102270;;;15.5;71
61571;BME280;47463;49.884;10.010;2023-10-09T18:20:01;102260;;;15.7;69
61571;BME280;47463;49.884;10.010;2023-10-09T18:25:01;102270;;;15.5;71
61571;BME280;47463;49.884;10.010;2023-10-09T18:30:01;102260;;;15.5;70
61571;BME280;47463;49.884;10.010;2023-10-09T18:35:01;102260;;;15.7;69
61571;BME280;47463;49.884;10.010;2023-10-09T18:40:01;102260;;;16;67
61571;BME280;47463;49.884;10.010;2023-10-09T18:45:01;102260;;;15.9;68
61571;BME280;47463;49.884;10.010;2023-10-09T18:50:01;102280;;;16.3;65
61571;BME280;47463;49.884;10.010;2023-10-09T18:55:01;102260;;;16.6;64
61571;BME280;47463;49.884;10.010;2023-10-09T19:00:01;102260;;;16.9;62
61571;BME280;47463;49.884;10.010;2023-10-09T19:05:01;102270;;;17.1;61
61571;BME280;47463;49.884;10.010;2023-10-09T19:10:01;102280;;;17.4;59
61571;BME280;47463;49.884;10.010;2023-10-09T19:15:01;102290;;;17.2;60
61571;BME280;47463;49.884;10.010;2023-10-09T19:20:01;102290;;;17.3;60
61571;BME280;47463;49.884;10.010;2023-10-09T19:25:01;102290;;;17.3;60
61571;BME280;47463;49.884;10.010;2023-10-09T19:30:01;102290;;;17.2;60
61571;BME280;47463;49.884;10.010;2023-10-09T19:35:01;102290;;;17.1;60
61571;BME280;47463;49.884;10.010;2023-10-09T19:40:01;102290;;;16.8;62
61571;BME280;47463;49.884;10.010;2023-10-09T19:45:01;102300;;;16.6;63
61571;BME280;47463;49.884;10.010;2023-10-09T19:50:01;102300;;;16.5;64
61571;BME280;47463;49.884;10.010;2023-10-09T19:55:01;102310;;;16.2;65
61571;BME280;47463;49.884;10.010;2023-10-09T20:00:01;102320;;;16.4;64
61571;BME280;47463;49.884;10.010;2023-10-09T20:05:01;102320;;;16.3;64
61571;BME280;47463;49.884;10.010;2023-10-09T20:10:01;102310;;;16.3;65
61571;BME280;47463;49.884;10.010;2023-10-09T20:15:01;102320;;;16.2;65
61571;BME280;47463;49.884;10.010;2023-10-09T20:20:01;102320;;;16;67
61571;BME280;47463;49.884;10.010;2023-10-09T20:25:01;102320;;;15.8;68
61571;BME280;47463;49.884;10.010;2023-10-09T20:30:01;102340;;;15.8;67
61571;BME280;47463;49.884;10.010;2023-10-09T20:35:01;102340;;;15.8;67
61571;BME280;47463;49.884;10.010;2023-10-09T20:40:01;102340;;;15.7;68
61571;BME280;47463;49.884;10.010;2023-10-09T20:45:01;102350;;;15.5;68
61571;BME280;47463;49.884;10.010;2023-10-09T20:50:01;102360;;;15.5;68
61571;BME280;47463;49.884;10.010;2023-10-09T20:55:01;102360;;;15.5;68
61571;BME280;47463;49.884;10.010;2023-10-09T21:00:01;102360;;;15.5;68
61571;BME280;47463;49.884;10.010;2023-10-09T21:05:01;102360;;;15.5;69
61571;BME280;47463;49.884;10.010;2023-10-09T21:10:01;102370;;;15.3;69
61571;BME280;47463;49.884;10.010;2023-10-09T21:15:01;102370;;;15;71
61571;BME280;47463;49.884;10.010;2023-10-09T21:20:01;102360;;;14.8;72
61571;BME280;47463;49.884;10.010;2023-10-09T21:25:01;102370;;;14.9;72
61571;BME280;47463;49.884;10.010;2023-10-09T21:30:01;102360;;;15.5;69
61571;BME280;47463;49.884;10.010;2023-10-09T21:35:01;102360;;;16.2;66
61571;BME280;47463;49.884;10.010;2023-10-09T21:40:01;102360;;;16.2;66
61571;BME280;47463;49.884;10.010;2023-10-09T21:45:01;102380;;;16.1;66
61571;BME280;47463;49.884;10.010;2023-10-09T21:50:01;102370;;;16.1;66
61571;BME280;47463;49.884;10.010;2023-10-09T21:55:01;102370;;;16.1;66
61571;BME280;47463;49.884;10.010;2023-10-09T22:00:01;102370;;;15.7;67
61571;BME280;47463;49.884;10.010;2023-10-09T22:05:01;102380;;;15.5;68
61571;BME280;47463;49.884;10.010;2023-10-09T22:10:01;102370;;;14.9;71
61571;BME280;47463;49.884;10.010;2023-10-09T22:15:01;102370;;;14.8;71
61571;BME280;47463;49.884;10.010;2023-10-09T22:20:01;102370;;;14.5;73
61571;BME280;47463;49.884;10.010;2023-10-09T22:25:01;102380;;;14.2;73
61571;BME280;47463;49.884;10.010;2023-10-09T22:30:01;102380;;;14.2;73
61571;BME280;47463;49.884;10.010;2023-10-09T22:35:01;102370;;;14;74
61571;BME280;47463;49.884;10.010;2023-10-09T22:40:01;102370;;;13.9;75
61571;BME280;47463;49.884;10.010;2023-10-09T22:45:01;102380;;;13.9;75
61571;BME280;47463;49.884;10.010;2023-10-09T22:50:01;102390;;;13.6;76
61571;BME280;47463;49.884;10.010;2023-10-09T22:55:01;102380;;;13.6;76
61571;BME280;47463;49.884;10.010;2023-10-09T23:00:01;102380;;;13.6;76
61571;BME280;47463;49.884;10.010;2023-10-09T23:05:01;102380;;;13.5;77
61571;BME280;47463;49.884;10.010;2023-10-09T23:10:01;102370;;;13.2;78
61571;BME280;47463;49.884;10.010;2023-10-09T23:15:01;102370;;;12.9;79
61571;BME280;47463;49.884;10.010;2023-10-09T23:20:01;102360;;;12.8;80
61571;BME280;47463;49.884;10.010;2023-10-09T23:25:01;102350;;;12.7;80
61571;BME280;47463;49.884;10.010;2023-10-09T23:30:01;102360;;;12.7;80
61571;BME280;47463;49.884;10.010;2023-10-09T23:35:01;102370;;;12.5;81
61571;BME280;47463;49.884;10.010;2023-10-09T23:40:01;102360;;;12.4;81
61571;BME280;47463;49.884;10.010;2023-10-09T23:45:01;102360;;;12.4;82
61571;BME280;47463;49.884;10.010;2023-10-09T23:50:01;102370;;;12.4;82
61571;BME280;47463;49.884;10.010;2023-10-09T23:55:01;102390;;;12.4;82
